Time;durP1;ratioP1;P1;durP2;ratioP2;P2;SDS_P1;SDS_P2;PMS_P1;PMS_P2;Temp;Humidity;BMP_temperature;BMP_pressure;BME280_temperature;BME280_humidity;BME280_pressure;Samples;Min_cycle;Max_cycle;Signal;HPM_P1;HPM_P2
2022/09/28 00:02:01;;;;;;;7.33;5.27;;;8.40;99.90;;;;;;5024118;28;20486;-87
2022/09/28 00:04:35;;;;;;;7.50;5.40;;;8.40;99.90;;;;;;5009211;28;20302;-87
2022/09/28 00:07:02;;;;;;;7.00;5.50;;;8.40;99.90;;;;;;5023308;28;20251;-87
2022/09/28 00:09:29;;;;;;;8.57;5.63;;;8.40;99.90;;;;;;5027640;28;20568;-86
2022/09/28 00:11:55;;;;;;;8.10;5.57;;;8.40;99.90;;;;;;5016541;28;20313;-86
2022/09/28 00:14:23;;;;;;;6.33;4.77;;;8.40;99.90;;;;;;5023593;28;20888;-86
2022/09/28 00:16:50;;;;;;;6.87;5.10;;;8.40;99.90;;;;;;5022214;28;20231;-85
2022/09/28 00:19:16;;;;;;;5.53;4.90;;;8.40;99.90;;;;;;5022518;28;20253;-86
2022/09/28 00:21:44;;;;;;;6.80;5.30;;;8.30;99.90;;;;;;5010666;28;20222;-85
2022/09/28 00:24:17;;;;;;;6.63;5.30;;;8.30;99.90;;;;;;5025632;28;20339;-85
2022/09/28 00:26:48;;;;;;;8.00;5.57;;;8.30;99.90;;;;;;5019694;28;20244;-85
2022/09/28 00:29:22;;;;;;;7.20;5.40;;;8.30;99.90;;;;;;5024161;28;20212;-84
2022/09/28 00:31:51;;;;;;;7.07;5.67;;;8.30;99.90;;;;;;5027919;28;20718;-86
2022/09/28 00:34:18;;;;;;;8.60;5.23;;;8.30;99.90;;;;;;5005412;28;20742;-85
2022/09/28 00:36:48;;;;;;;6.37;5.53;;;8.30;99.90;;;;;;5021193;28;20222;-84
2022/09/28 00:39:16;;;;;;;9.33;6.10;;;8.20;99.90;;;;;;5023414;28;20229;-85
2022/09/28 00:41:43;;;;;;;7.37;5.77;;;8.20;99.90;;;;;;5026081;28;20222;-85
2022/09/28 00:44:34;;;;;;;8.17;5.40;;;8.20;99.90;;;;;;5009812;28;20233;-88
2022/09/28 00:47:03;;;;;;;6.40;5.37;;;8.20;99.90;;;;;;5011843;28;20651;-87
2022/09/28 00:49:35;;;;;;;7.93;5.80;;;8.20;99.90;;;;;;5031382;28;20776;-86
2022/09/28 00:52:06;;;;;;;7.27;5.60;;;8.20;99.90;;;;;;5027159;28;20261;-85
2022/09/28 00:54:33;;;;;;;7.47;6.00;;;8.20;99.90;;;;;;5026007;28;20767;-87
2022/09/28 00:57:02;;;;;;;9.37;5.70;;;8.20;99.90;;;;;;5024881;28;20315;-86
2022/09/28 00:59:30;;;;;;;8.10;6.00;;;8.20;99.90;;;;;;5002823;28;20656;-86
2022/09/28 01:01:56;;;;;;;6.97;5.17;;;8.20;99.90;;;;;;5009974;28;20254;-85
2022/09/28 01:04:24;;;;;;;9.00;5.47;;;8.20;99.90;;;;;;5025684;28;20243;-85
2022/09/28 01:06:52;;;;;;;8.67;6.00;;;8.20;99.90;;;;;;5027499;28;20647;-85
2022/09/28 01:09:21;;;;;;;7.00;5.67;;;8.20;99.90;;;;;;5010520;28;20250;-85
2022/09/28 01:11:48;;;;;;;6.03;5.07;;;8.20;99.90;;;;;;5029184;28;20226;-87
2022/09/28 01:14:16;;;;;;;7.40;5.73;;;8.20;99.90;;;;;;5028040;28;20234;-86
2022/09/28 01:16:50;;;;;;;7.77;6.33;;;8.20;99.90;;;;;;5028432;28;20226;-86
2022/09/28 01:19:47;;;;;;;7.57;6.30;;;8.10;99.90;;;;;;5026493;28;20224;-85
2022/09/28 01:22:30;;;;;;;11.83;6.23;;;8.10;99.90;;;;;;5027135;28;20217;-86
2022/09/28 01:25:09;;;;;;;8.47;6.50;;;8.10;99.90;;;;;;5001948;28;20471;-87
2022/09/28 01:27:40;;;;;;;8.80;6.37;;;8.10;99.90;;;;;;5026065;28;20246;-85
2022/09/28 01:30:09;;;;;;;7.63;6.50;;;8.10;99.90;;;;;;5028935;28;20283;-85
2022/09/28 01:32:45;;;;;;;9.73;6.90;;;8.10;99.90;;;;;;5010759;28;20308;-85
2022/09/28 01:35:17;;;;;;;8.10;5.97;;;8.10;99.90;;;;;;5027579;28;20548;-86
2022/09/28 01:37:50;;;;;;;7.93;6.17;;;8.00;99.90;;;;;;5011325;28;20231;-86
2022/09/28 01:40:25;;;;;;;6.37;5.50;;;8.00;99.90;;;;;;5013407;28;20228;-87
2022/09/28 01:42:58;;;;;;;7.50;5.53;;;8.00;99.90;;;;;;5025789;28;20236;-86
2022/09/28 01:45:29;;;;;;;6.47;5.67;;;8.00;99.90;;;;;;5015391;28;20687;-87
2022/09/28 01:47:59;;;;;;;7.87;5.90;;;8.00;99.90;;;;;;5005548;28;20224;-86
2022/09/28 01:50:29;;;;;;;7.13;5.53;;;8.00;99.90;;;;;;5022647;28;20225;-86
2022/09/28 01:53:01;;;;;;;7.77;5.40;;;8.00;99.90;;;;;;5029166;28;20259;-86
2022/09/28 01:55:31;;;;;;;6.50;5.63;;;8.00;99.90;;;;;;5029083;28;20232;-86
2022/09/28 01:58:03;;;;;;;6.13;5.53;;;7.90;99.90;;;;;;5027918;28;20327;-86
2022/09/28 02:00:30;;;;;;;5.97;5.23;;;7.90;99.90;;;;;;5020496;28;20313;-86
2022/09/28 02:03:05;;;;;;;7.30;5.80;;;7.90;99.90;;;;;;5028615;28;20228;-85
2022/09/28 02:05:56;;;;;;;6.60;5.27;;;7.80;99.90;;;;;;5011610;28;20368;-86
2022/09/28 02:08:29;;;;;;;6.57;5.57;;;7.80;99.90;;;;;;5001062;28;20302;-85
2022/09/28 02:11:04;;;;;;;7.17;5.37;;;7.80;99.90;;;;;;5034406;28;20234;-84
2022/09/28 02:13:35;;;;;;;7.90;5.70;;;7.70;99.90;;;;;;4999017;28;20218;-85
2022/09/28 02:16:06;;;;;;;8.43;5.43;;;7.70;99.90;;;;;;5023084;28;20287;-85
2022/09/28 02:18:34;;;;;;;6.27;5.40;;;7.60;99.90;;;;;;5023686;28;20281;-85
2022/09/28 02:21:08;;;;;;;7.57;6.03;;;7.60;99.90;;;;;;5027568;28;20317;-83
2022/09/28 02:23:38;;;;;;;6.87;5.90;;;7.50;99.90;;;;;;5034272;28;20238;-83
2022/09/28 02:26:11;;;;;;;14.07;7.00;;;7.50;99.90;;;;;;5018005;28;20237;-84
2022/09/28 02:28:39;;;;;;;8.40;6.03;;;7.50;99.90;;;;;;5018536;28;20242;-83
2022/09/28 02:31:07;;;;;;;6.90;5.83;;;7.40;99.90;;;;;;5035531;28;20225;-84
2022/09/28 02:33:37;;;;;;;7.57;6.07;;;7.40;99.90;;;;;;5032837;28;20232;-84
2022/09/28 02:36:04;;;;;;;8.10;6.10;;;7.30;99.90;;;;;;5032743;28;20225;-84
2022/09/28 02:38:39;;;;;;;10.40;5.40;;;7.30;99.90;;;;;;5012329;28;20221;-84
2022/09/28 02:41:13;;;;;;;9.00;5.97;;;7.30;99.90;;;;;;5033222;28;20657;-83
2022/09/28 02:43:52;;;;;;;7.63;6.17;;;7.20;99.90;;;;;;5013023;28;20226;-84
2022/09/28 02:46:29;;;;;;;8.50;6.37;;;7.20;99.90;;;;;;5029910;28;20229;-84
2022/09/28 02:49:14;;;;;;;11.47;6.87;;;7.10;99.90;;;;;;5028227;28;20694;-83
2022/09/28 02:51:56;;;;;;;7.50;6.70;;;7.10;99.90;;;;;;5025282;28;20221;-85
2022/09/28 02:54:37;;;;;;;10.17;7.40;;;7.00;99.90;;;;;;5012944;28;20232;-84
2022/09/28 02:57:12;;;;;;;11.67;7.63;;;7.00;99.90;;;;;;5027359;28;20662;-85
2022/09/28 02:59:52;;;;;;;10.47;8.43;;;7.00;99.90;;;;;;5016688;28;20224;-84
2022/09/28 03:02:29;;;;;;;14.17;9.00;;;6.90;99.90;;;;;;5029231;28;20635;-84
2022/09/28 03:05:11;;;;;;;14.20;10.27;;;6.90;99.90;;;;;;5028751;28;20312;-84
2022/09/28 03:07:41;;;;;;;13.03;10.03;;;6.90;99.90;;;;;;5030381;28;20224;-83
2022/09/28 03:10:15;;;;;;;12.57;9.93;;;6.90;99.90;;;;;;5027346;28;20220;-81
2022/09/28 03:12:44;;;;;;;18.43;11.23;;;6.80;99.90;;;;;;5022915;28;20227;-84
2022/09/28 03:15:19;;;;;;;14.03;11.07;;;6.80;99.90;;;;;;5027545;28;20856;-83
2022/09/28 03:17:46;;;;;;;15.37;10.57;;;6.80;99.90;;;;;;5013286;28;20222;-83
2022/09/28 03:20:13;;;;;;;11.43;9.93;;;6.70;99.90;;;;;;5016046;28;20226;-83
2022/09/28 03:22:40;;;;;;;14.47;10.30;;;6.70;99.90;;;;;;5016408;28;20769;-83
2022/09/28 03:25:10;;;;;;;11.73;9.43;;;6.70;99.90;;;;;;5016808;28;20668;-83
2022/09/28 03:27:38;;;;;;;12.23;10.00;;;6.70;99.90;;;;;;5011527;28;20228;-83
2022/09/28 03:30:08;;;;;;;12.77;9.67;;;6.70;99.90;;;;;;5024561;28;20213;-83
2022/09/28 03:32:36;;;;;;;14.47;10.97;;;6.60;99.90;;;;;;5012235;28;20320;-84
2022/09/28 03:35:03;;;;;;;13.00;10.00;;;6.60;99.90;;;;;;5021647;28;20233;-84
2022/09/28 03:37:30;;;;;;;13.63;10.20;;;6.60;99.90;;;;;;5015125;28;20221;-83
2022/09/28 03:39:57;;;;;;;15.10;10.13;;;6.60;99.90;;;;;;5024509;28;20226;-82
2022/09/28 03:42:24;;;;;;;12.80;9.87;;;6.60;99.90;;;;;;5009223;28;20247;-81
2022/09/28 03:44:51;;;;;;;19.87;11.13;;;6.60;99.90;;;;;;5022931;28;20307;-82
2022/09/28 03:47:18;;;;;;;22.27;11.23;;;6.60;99.90;;;;;;5026064;28;20238;-82
2022/09/28 03:49:46;;;;;;;17.60;11.80;;;6.60;99.90;;;;;;5023653;28;20313;-82
2022/09/28 03:52:16;;;;;;;78.30;13.87;;;6.60;99.90;;;;;;5003997;28;21976;-82
2022/09/28 03:54:43;;;;;;;47.33;13.17;;;6.60;99.90;;;;;;5021930;28;20754;-81
2022/09/28 03:57:10;;;;;;;80.53;13.83;;;6.60;99.90;;;;;;5024338;28;20418;-82
2022/09/28 03:59:36;;;;;;;115.13;16.10;;;6.50;99.90;;;;;;5023425;28;20282;-81
2022/09/28 04:02:04;;;;;;;135.93;17.33;;;6.60;99.90;;;;;;5019635;28;20707;-84
2022/09/28 04:04:32;;;;;;;148.70;18.20;;;6.60;99.90;;;;;;5029998;28;20229;-84
2022/09/28 04:07:00;;;;;;;91.73;16.10;;;6.50;99.90;;;;;;5016133;28;20224;-85
2022/09/28 04:09:26;;;;;;;128.07;17.10;;;6.50;99.90;;;;;;5018660;28;20262;-84
2022/09/28 04:11:55;;;;;;;67.93;14.67;;;6.50;99.90;;;;;;5019308;28;20632;-84
2022/09/28 04:14:22;;;;;;;89.83;16.20;;;6.50;99.90;;;;;;5022079;28;20313;-86
2022/09/28 04:16:53;;;;;;;121.20;17.47;;;6.50;99.90;;;;;;5008919;28;20230;-84
2022/09/28 04:19:21;;;;;;;164.37;20.20;;;6.50;99.90;;;;;;5008220;28;20224;-83
2022/09/28 04:21:49;;;;;;;72.80;17.07;;;6.50;99.90;;;;;;5027025;28;20227;-83
2022/09/28 04:24:19;;;;;;;116.93;18.87;;;6.50;99.90;;;;;;5008390;28;20230;-82
2022/09/28 04:26:46;;;;;;;110.13;18.97;;;6.50;99.90;;;;;;5027036;28;20230;-83
2022/09/28 04:29:15;;;;;;;117.67;19.80;;;6.50;99.90;;;;;;5025853;28;20595;-83
2022/09/28 04:31:47;;;;;;;162.17;21.87;;;6.50;99.90;;;;;;5003776;28;20564;-82
2022/09/28 04:34:17;;;;;;;97.37;18.00;;;6.50;99.90;;;;;;5026116;28;20223;-83
2022/09/28 04:36:44;;;;;;;169.70;21.87;;;6.60;99.90;;;;;;5023892;28;20748;-82
2022/09/28 04:39:11;;;;;;;238.33;26.03;;;6.50;99.90;;;;;;5007558;28;21933;-84
2022/09/28 04:41:39;;;;;;;162.90;21.93;;;6.50;99.90;;;;;;5023190;28;20237;-84
2022/09/28 04:44:06;;;;;;;173.80;22.53;;;6.50;99.90;;;;;;5018981;28;20233;-85
2022/09/28 04:46:33;;;;;;;125.17;19.13;;;6.50;99.90;;;;;;5025153;28;20232;-81
2022/09/28 04:49:18;;;;;;;179.80;21.53;;;6.50;99.90;;;;;;5017501;28;20874;-81
2022/09/28 04:51:52;;;;;;;99.37;18.10;;;6.50;99.90;;;;;;5003374;28;20256;-81
2022/09/28 04:54:19;;;;;;;102.80;17.87;;;6.50;99.90;;;;;;5016259;28;20764;-81
2022/09/28 04:56:47;;;;;;;112.47;17.53;;;6.50;99.90;;;;;;5024514;28;20300;-81
2022/09/28 04:59:14;;;;;;;199.07;22.93;;;6.50;99.90;;;;;;5021532;28;20594;-81
2022/09/28 05:01:42;;;;;;;95.17;16.57;;;6.50;99.90;;;;;;5020152;28;20224;-80
2022/09/28 05:04:29;;;;;;;66.93;15.70;;;6.40;99.90;;;;;;5021200;28;20361;-81
2022/09/28 05:07:16;;;;;;;84.87;16.33;;;6.50;99.90;;;;;;5003720;28;20221;-83
2022/09/28 05:09:43;;;;;;;129.23;19.00;;;6.40;99.90;;;;;;5022666;28;20252;-82
2022/09/28 05:12:11;;;;;;;107.73;18.37;;;6.40;99.90;;;;;;5025883;28;20254;-84
2022/09/28 05:14:38;;;;;;;81.70;17.80;;;6.50;99.90;;;;;;5013519;28;20532;-82
2022/09/28 05:17:05;;;;;;;74.17;17.97;;;6.50;99.90;;;;;;5023201;28;20226;-82
2022/09/28 05:19:59;;;;;;;50.47;15.17;;;6.50;99.90;;;;;;5021364;28;20231;-83
2022/09/28 05:22:31;;;;;;;39.40;16.87;;;6.50;99.90;;;;;;5022021;28;20226;-83
2022/09/28 05:25:01;;;;;;;47.53;18.57;;;6.60;99.90;;;;;;4993686;28;20739;-81
2022/09/28 05:27:34;;;;;;;36.77;16.67;;;6.60;99.90;;;;;;4999186;28;20376;-83
2022/09/28 05:30:12;;;;;;;88.17;19.03;;;6.60;99.90;;;;;;5007174;28;20225;-82
2022/09/28 05:32:57;;;;;;;64.93;19.20;;;6.60;99.90;;;;;;5023250;28;20596;-83
2022/09/28 05:35:41;;;;;;;49.13;17.03;;;6.60;99.90;;;;;;5008865;28;20790;-84
2022/09/28 05:38:08;;;;;;;46.40;18.27;;;6.70;99.90;;;;;;5023993;28;20291;-84
2022/09/28 05:40:37;;;;;;;60.13;19.17;;;6.70;99.90;;;;;;5026680;28;20231;-82
2022/09/28 05:43:05;;;;;;;49.37;18.47;;;6.70;99.90;;;;;;5022178;28;20238;-83
2022/09/28 05:45:35;;;;;;;43.80;18.30;;;6.70;99.90;;;;;;5022033;28;20234;-81
2022/09/28 05:48:04;;;;;;;38.17;17.40;;;6.70;99.90;;;;;;5021771;28;20584;-81
2022/09/28 05:50:31;;;;;;;83.60;16.97;;;6.70;99.90;;;;;;5021052;28;20339;-81
2022/09/28 05:53:06;;;;;;;97.70;17.43;;;6.70;99.90;;;;;;5021495;28;20354;-84
2022/09/28 05:55:36;;;;;;;102.50;17.40;;;6.70;99.90;;;;;;5025117;28;20272;-83
2022/09/28 05:58:06;;;;;;;57.33;16.17;;;6.70;99.90;;;;;;5008127;28;20217;-83
2022/09/28 06:00:34;;;;;;;71.23;16.80;;;6.60;99.90;;;;;;5021249;28;20604;-81
2022/09/28 06:03:05;;;;;;;51.77;14.97;;;6.60;99.90;;;;;;5019420;28;20653;-81
2022/09/28 06:05:37;;;;;;;103.10;18.37;;;6.50;99.90;;;;;;5008500;28;20227;-82
2022/09/28 06:08:05;;;;;;;55.77;15.27;;;6.50;99.90;;;;;;5022799;28;20689;-81
2022/09/28 06:10:32;;;;;;;93.27;17.60;;;6.40;99.90;;;;;;5022964;28;20234;-81
2022/09/28 06:13:01;;;;;;;71.30;15.30;;;6.40;99.90;;;;;;5023652;28;20313;-82
2022/09/28 06:15:31;;;;;;;55.07;15.47;;;6.30;99.90;;;;;;5025673;28;20287;-81
2022/09/28 06:18:01;;;;;;;71.83;15.13;;;6.30;99.90;;;;;;5011397;28;20222;-82
2022/09/28 06:20:39;;;;;;;48.23;13.50;;;6.30;99.90;;;;;;5019473;28;20246;-81
2022/09/28 06:23:14;;;;;;;56.27;14.90;;;6.30;99.90;;;;;;5023946;28;20226;-81
2022/09/28 06:25:43;;;;;;;99.93;16.87;;;6.30;99.90;;;;;;5021008;28;20239;-81
2022/09/28 06:28:11;;;;;;;100.60;17.10;;;6.40;99.90;;;;;;5013863;28;20215;-81
2022/09/28 06:30:43;;;;;;;52.30;14.90;;;6.40;99.90;;;;;;5026019;28;20249;-82
2022/09/28 06:33:15;;;;;;;78.10;14.70;;;6.40;99.90;;;;;;5023052;28;20222;-83
2022/09/28 06:35:42;;;;;;;86.83;15.50;;;6.50;99.90;;;;;;5024581;28;20231;-81
2022/09/28 06:38:11;;;;;;;60.83;14.60;;;6.60;99.90;;;;;;5022648;28;20260;-81
2022/09/28 06:40:39;;;;;;;43.70;16.43;;;6.50;99.90;;;;;;5007135;28;20263;-81
2022/09/28 06:43:09;;;;;;;52.93;15.77;;;6.60;99.90;;;;;;5013008;28;20227;-82
2022/09/28 06:45:56;;;;;;;49.57;14.87;;;6.60;99.90;;;;;;5025115;28;20270;-81
2022/09/28 06:48:43;;;;;;;46.10;14.57;;;6.60;99.90;;;;;;5023582;28;20230;-82
2022/09/28 06:51:13;;;;;;;64.20;16.07;;;6.70;99.90;;;;;;5005315;28;20225;-81
2022/09/28 06:53:55;;;;;;;34.73;15.57;;;6.80;99.90;;;;;;4996246;28;20231;-82
2022/09/28 06:56:36;;;;;;;38.77;15.37;;;6.80;99.90;;;;;;5019054;28;20232;-81
2022/09/28 06:59:04;;;;;;;88.57;16.50;;;6.90;99.90;;;;;;5017927;28;20232;-83
2022/09/28 07:01:32;;;;;;;77.17;17.03;;;6.90;99.90;;;;;;5028912;28;21025;-81
2022/09/28 07:04:06;;;;;;;61.73;16.23;;;7.00;99.90;;;;;;5023733;28;20626;-81
2022/09/28 07:06:52;;;;;;;55.73;14.90;;;7.00;99.90;;;;;;5025794;28;20304;-83
2022/09/28 07:09:47;;;;;;;75.53;15.83;;;7.10;99.90;;;;;;5019453;28;21582;-81
2022/09/28 07:12:29;;;;;;;46.53;14.37;;;7.10;99.90;;;;;;5023349;28;20309;-82
2022/09/28 07:15:04;;;;;;;191.20;23.57;;;7.10;99.90;;;;;;5001685;28;20240;-82
2022/09/28 07:17:33;;;;;;;46.63;16.67;;;7.20;99.90;;;;;;5004184;28;20307;-81
2022/09/28 07:20:03;;;;;;;50.33;16.53;;;7.20;99.90;;;;;;5022717;28;20603;-81
2022/09/28 07:22:33;;;;;;;39.20;15.10;;;7.30;99.90;;;;;;5024004;28;20229;-82
2022/09/28 07:25:01;;;;;;;41.53;15.73;;;7.40;99.90;;;;;;5021239;28;20220;-81
2022/09/28 07:27:47;;;;;;;31.57;15.23;;;7.40;99.90;;;;;;5021508;28;20229;-84
2022/09/28 07:30:34;;;;;;;54.97;16.30;;;7.50;99.90;;;;;;5023726;28;20240;-81
2022/09/28 07:33:16;;;;;;;96.87;18.30;;;7.50;99.90;;;;;;5021066;28;20324;-83
2022/09/28 07:35:52;;;;;;;50.33;16.67;;;7.60;99.90;;;;;;5020805;28;20227;-82
2022/09/28 07:38:19;;;;;;;53.13;16.63;;;7.60;99.90;;;;;;5021312;28;20642;-82
2022/09/28 07:43:30;;;;;;;53.70;16.70;;;7.70;99.90;;;;;;5021270;28;20961;-82
2022/09/28 07:45:58;;;;;;;122.50;19.17;;;7.70;99.90;;;;;;5009571;28;20797;-81
2022/09/28 07:48:26;;;;;;;59.47;16.37;;;7.80;99.90;;;;;;5019373;28;20769;-81
2022/09/28 07:51:31;;;;;;;58.63;17.33;;;7.80;99.90;;;;;;5017326;28;20694;-81
2022/09/28 07:54:16;;;;;;;29.87;15.87;;;7.90;99.90;;;;;;5011819;28;20237;-82
2022/09/28 07:56:57;;;;;;;34.20;17.50;;;7.90;99.90;;;;;;4991064;28;20313;-82
2022/09/28 07:59:48;;;;;;;41.53;16.40;;;7.90;99.90;;;;;;5017981;28;20236;-83
2022/09/28 08:02:27;;;;;;;25.43;15.77;;;7.90;99.90;;;;;;5012210;28;20229;-82
2022/09/28 08:04:58;;;;;;;31.57;17.40;;;7.90;99.90;;;;;;4999418;28;20337;-81
2022/09/28 08:07:30;;;;;;;26.63;16.67;;;7.80;99.90;;;;;;5009810;28;20246;-82
2022/09/28 08:10:03;;;;;;;255.03;28.57;;;7.80;99.90;;;;;;5022521;28;20267;-82
2022/09/28 08:12:30;;;;;;;27.53;16.37;;;7.80;99.90;;;;;;5020223;28;20463;-84
2022/09/28 08:15:35;;;;;;;29.07;17.90;;;7.80;99.90;;;;;;4974054;28;20252;-83
2022/09/28 08:18:11;;;;;;;51.10;19.83;;;7.90;99.90;;;;;;5018451;28;20256;-82
2022/09/28 08:23:23;;;;;;;87.60;23.70;;;8.00;99.90;;;;;;5014387;28;20268;-82
2022/09/28 08:25:52;;;;;;;30.33;18.73;;;8.10;99.90;;;;;;5004897;28;20233;-82
2022/09/28 08:28:22;;;;;;;27.50;18.57;;;8.20;99.90;;;;;;5015913;28;20230;-82
2022/09/28 08:30:59;;;;;;;26.40;18.03;;;8.30;99.90;;;;;;5020977;28;20706;-82
2022/09/28 08:33:26;;;;;;;26.53;17.80;;;8.40;99.90;;;;;;5018919;28;20315;-81
2022/09/28 08:36:13;;;;;;;26.47;18.23;;;8.40;99.90;;;;;;5023465;28;20340;-82
2022/09/28 08:38:58;;;;;;;28.33;18.10;;;8.50;99.90;;;;;;5022046;28;20234;-83
2022/09/28 08:41:49;;;;;;;32.63;20.37;;;8.50;99.90;;;;;;5020308;28;20279;-82
2022/09/28 08:44:42;;;;;;;27.33;18.53;;;8.50;99.90;;;;;;5021053;28;20326;-82
2022/09/28 08:50:36;;;;;;;26.90;17.63;;;8.50;99.90;;;;;;5020514;28;20682;-83
2022/09/28 08:53:39;;;;;;;30.93;18.57;;;8.60;99.90;;;;;;5017963;28;20276;-83
2022/09/28 08:56:26;;;;;;;26.20;17.77;;;8.60;99.90;;;;;;5003173;28;20265;-82
2022/09/28 08:58:56;;;;;;;27.57;19.23;;;8.60;99.90;;;;;;5018633;28;20247;-82
2022/09/28 09:01:31;;;;;;;22.53;16.00;;;8.60;99.90;;;;;;5022350;28;20239;-82
2022/09/28 09:04:03;;;;;;;26.93;17.73;;;8.60;99.90;;;;;;5021281;28;20573;-82
2022/09/28 09:07:13;;;;;;;27.23;17.63;;;8.60;99.90;;;;;;5023933;28;20499;-83
2022/09/28 09:09:58;;;;;;;30.83;17.70;;;8.70;99.90;;;;;;5017819;28;20229;-82
2022/09/28 09:12:35;;;;;;;25.13;17.17;;;8.70;99.90;;;;;;5020583;28;20290;-82
2022/09/28 09:15:39;;;;;;;28.60;18.27;;;8.70;99.90;;;;;;5025552;28;20309;-84
2022/09/28 09:18:32;;;;;;;26.50;18.83;;;8.80;99.90;;;;;;4997700;28;20828;-82
2022/09/28 09:21:37;;;;;;;25.87;17.00;;;8.90;99.90;;;;;;5018951;28;20229;-82
2022/09/28 09:24:17;;;;;;;25.13;17.40;;;9.00;99.90;;;;;;5016247;28;20247;-82
2022/09/28 09:26:48;;;;;;;23.63;16.53;;;9.10;99.90;;;;;;5019116;28;20252;-84
2022/09/28 09:29:28;;;;;;;23.00;17.10;;;9.10;99.90;;;;;;5015225;28;20222;-83
2022/09/28 09:32:14;;;;;;;23.47;15.70;;;9.10;99.90;;;;;;5015862;28;20229;-82
2022/09/28 09:35:10;;;;;;;21.30;15.70;;;9.20;99.90;;;;;;5004901;28;20228;-83
2022/09/28 09:38:32;;;;;;;19.30;14.50;;;9.30;99.90;;;;;;5020498;28;20222;-82
2022/09/28 09:41:36;;;;;;;22.27;15.90;;;9.40;99.90;;;;;;5002863;28;20233;-83
2022/09/28 09:44:31;;;;;;;21.37;15.17;;;9.40;99.90;;;;;;5018794;28;20542;-83
2022/09/28 09:47:35;;;;;;;19.17;14.10;;;9.50;99.90;;;;;;4981902;28;20234;-82
2022/09/28 09:50:13;;;;;;;17.77;13.53;;;9.60;99.90;;;;;;5016763;28;20305;-83
2022/09/28 09:52:48;;;;;;;19.33;14.43;;;9.70;99.90;;;;;;5013286;28;20214;-83
2022/09/28 09:55:20;;;;;;;20.33;14.07;;;9.80;99.90;;;;;;5016247;28;20228;-83
2022/09/28 09:58:04;;;;;;;20.90;15.50;;;9.80;99.90;;;;;;4999882;28;20302;-84
2022/09/28 10:00:39;;;;;;;19.67;14.17;;;9.90;99.90;;;;;;5027075;28;20781;-84
2022/09/28 10:03:31;;;;;;;16.63;13.30;;;10.00;99.90;;;;;;4999781;28;20226;-83
2022/09/28 10:06:17;;;;;;;16.83;12.73;;;10.20;99.90;;;;;;5024311;28;20238;-84
2022/09/28 10:08:48;;;;;;;16.40;12.97;;;10.30;99.90;;;;;;5024544;28;20927;-82
2022/09/28 10:11:21;;;;;;;17.77;12.80;;;10.50;99.90;;;;;;5013018;28;20222;-84
2022/09/28 10:13:53;;;;;;;16.87;12.43;;;10.70;99.90;;;;;;4996877;28;20242;-83
2022/09/28 10:16:46;;;;;;;14.57;11.67;;;10.90;99.90;;;;;;5024952;28;20269;-85
2022/09/28 10:19:30;;;;;;;16.57;12.20;;;11.10;99.90;;;;;;5024547;28;20285;-83
2022/09/28 10:22:22;;;;;;;16.70;12.90;;;11.30;99.90;;;;;;5025254;28;20227;-83
2022/09/28 10:24:51;;;;;;;17.77;12.87;;;11.50;99.90;;;;;;5019428;28;20232;-83
2022/09/28 10:27:22;;;;;;;16.60;13.00;;;11.70;99.90;;;;;;5017066;28;20307;-82
2022/09/28 10:29:53;;;;;;;18.07;13.27;;;11.80;99.90;;;;;;5022678;28;20284;-83
2022/09/28 10:32:24;;;;;;;17.50;12.83;;;11.90;99.90;;;;;;5021717;28;20598;-84
2022/09/28 10:35:14;;;;;;;15.30;11.70;;;11.90;99.90;;;;;;5025471;28;20281;-84
2022/09/28 10:37:53;;;;;;;18.47;13.30;;;12.00;99.90;;;;;;5013929;28;20239;-83
2022/09/28 10:40:42;;;;;;;16.97;13.87;;;12.00;99.90;;;;;;5024778;28;20231;-83
2022/09/28 10:43:20;;;;;;;17.50;13.13;;;12.10;99.90;;;;;;4998505;28;20231;-83
2022/09/28 10:45:51;;;;;;;19.03;14.30;;;12.10;99.90;;;;;;5023920;28;20225;-83
2022/09/28 10:48:22;;;;;;;16.97;13.40;;;12.10;99.90;;;;;;5023825;28;20224;-83
2022/09/28 10:51:04;;;;;;;18.17;13.10;;;12.00;99.90;;;;;;5023798;28;20540;-83
2022/09/28 10:53:33;;;;;;;16.13;12.43;;;12.00;99.90;;;;;;5007138;28;20235;-85
2022/09/28 10:56:27;;;;;;;17.53;12.93;;;12.00;99.90;;;;;;4997885;28;20232;-83
2022/09/28 10:59:00;;;;;;;14.83;12.40;;;11.90;99.90;;;;;;5008340;28;20272;-83
2022/09/28 11:01:43;;;;;;;15.10;11.83;;;12.00;99.90;;;;;;5014812;28;20311;-83
2022/09/28 11:04:21;;;;;;;15.60;12.90;;;12.10;99.90;;;;;;5018849;28;20228;-84
2022/09/28 11:06:49;;;;;;;14.80;11.67;;;12.60;99.90;;;;;;5015256;28;20225;-83
2022/09/28 11:09:27;;;;;;;15.77;12.13;;;13.10;99.90;;;;;;5026952;28;20572;-83
2022/09/28 11:11:57;;;;;;;13.40;11.43;;;13.60;99.90;;;;;;5024149;28;20621;-84
2022/09/28 11:14:34;;;;;;;13.30;11.37;;;14.20;99.90;;;;;;5021677;28;20231;-85
2022/09/28 11:17:17;;;;;;;13.87;11.50;;;14.70;99.90;;;;;;5022412;28;20314;-84
2022/09/28 11:19:50;;;;;;;13.83;11.10;;;15.10;99.90;;;;;;5006239;28;20552;-83
2022/09/28 11:22:21;;;;;;;13.77;11.30;;;15.40;99.90;;;;;;5019700;28;20262;-83
2022/09/28 11:24:51;;;;;;;13.13;9.67;;;15.60;99.90;;;;;;5021532;28;20233;-83
2022/09/28 11:27:23;;;;;;;11.60;9.67;;;15.80;99.90;;;;;;5019798;28;20658;-83
2022/09/28 11:29:57;;;;;;;10.43;9.17;;;16.10;99.90;;;;;;5006390;28;20315;-83
2022/09/28 11:32:39;;;;;;;12.90;10.27;;;16.20;99.90;;;;;;5020439;28;20239;-83
2022/09/28 11:35:41;;;;;;;11.73;9.73;;;16.30;99.90;;;;;;5010732;28;20782;-85
2022/09/28 11:38:22;;;;;;;11.23;9.10;;;16.40;98.90;;;;;;5016806;28;20719;-83
2022/09/28 11:41:23;;;;;;;11.30;8.03;;;16.50;98.80;;;;;;5023899;28;20736;-83
2022/09/28 11:44:04;;;;;;;10.17;8.07;;;16.50;98.60;;;;;;5024806;28;20725;-83
2022/09/28 11:46:40;;;;;;;9.03;8.13;;;16.60;98.70;;;;;;5018801;28;20253;-83
2022/09/28 11:49:26;;;;;;;8.23;6.90;;;16.70;99.40;;;;;;5023243;28;20237;-85
2022/09/28 11:52:02;;;;;;;8.57;7.67;;;16.90;98.00;;;;;;5022466;28;20267;-85
2022/09/28 11:54:37;;;;;;;8.20;6.70;;;17.00;98.10;;;;;;5021442;28;20234;-85
2022/09/28 11:57:06;;;;;;;8.20;7.10;;;17.20;98.40;;;;;;5019370;28;20292;-82
2022/09/28 11:59:38;;;;;;;9.23;7.53;;;17.30;97.30;;;;;;5021180;28;20230;-83
2022/09/28 12:02:14;;;;;;;9.83;8.37;;;17.30;96.80;;;;;;5021465;28;20290;-83
2022/09/28 12:04:54;;;;;;;7.47;6.43;;;17.30;94.80;;;;;;5023873;28;20602;-84
2022/09/28 12:07:31;;;;;;;7.67;6.47;;;17.20;96.30;;;;;;5024268;28;20275;-83
2022/09/28 12:10:03;;;;;;;8.10;7.10;;;17.20;97.10;;;;;;5002782;28;20230;-83
2022/09/28 12:12:37;;;;;;;9.30;6.43;;;17.30;97.70;;;;;;5017999;28;20254;-83
2022/09/28 12:15:18;;;;;;;7.70;5.77;;;17.40;95.40;;;;;;5018128;28;20239;-84
2022/09/28 12:17:50;;;;;;;8.03;5.87;;;17.50;97.00;;;;;;5022024;28;20316;-84
2022/09/28 12:20:22;;;;;;;6.10;5.17;;;17.70;95.90;;;;;;5025849;28;20230;-83
2022/09/28 12:23:02;;;;;;;6.50;5.73;;;17.80;95.70;;;;;;5020845;28;20230;-83
2022/09/28 12:25:35;;;;;;;6.43;5.27;;;17.90;95.80;;;;;;5013573;28;20259;-83
2022/09/28 12:28:08;;;;;;;7.40;5.40;;;17.90;93.50;;;;;;5022129;28;20314;-83
2022/09/28 12:30:39;;;;;;;8.73;5.67;;;17.90;94.00;;;;;;5025335;28;20573;-85
2022/09/28 12:33:12;;;;;;;6.30;5.70;;;17.90;93.10;;;;;;5021859;28;20634;-83
2022/09/28 12:35:53;;;;;;;6.77;5.10;;;17.80;93.80;;;;;;5023813;28;20243;-83
2022/09/28 12:38:36;;;;;;;7.27;5.50;;;17.70;94.50;;;;;;5021813;28;20525;-83
2022/09/28 12:41:16;;;;;;;5.27;4.77;;;17.60;92.70;;;;;;5019679;28;20235;-83
2022/09/28 12:43:55;;;;;;;8.47;5.43;;;17.60;93.40;;;;;;4998752;28;20246;-83
2022/09/28 12:46:44;;;;;;;8.67;5.20;;;17.70;94.00;;;;;;5024615;28;20226;-83
2022/09/28 12:49:29;;;;;;;7.23;5.20;;;17.70;94.40;;;;;;5003686;28;20649;-82
2022/09/28 12:52:00;;;;;;;4.87;4.37;;;17.80;94.70;;;;;;5017501;28;20236;-83
2022/09/28 12:54:49;;;;;;;5.93;4.63;;;17.90;95.10;;;;;;5019474;28;20259;-83
2022/09/28 12:57:35;;;;;;;5.47;4.00;;;18.00;94.00;;;;;;5023374;28;20238;-84
2022/09/28 13:00:08;;;;;;;5.30;3.27;;;18.00;92.30;;;;;;5023649;28;20224;-84
2022/09/28 13:03:29;;;;;;;6.87;3.77;;;18.00;93.60;;;;;;5004022;28;20209;-82
2022/09/28 13:06:26;;;;;;;6.03;4.27;;;17.80;92.70;;;;;;5009347;28;20340;-84
2022/09/28 13:09:18;;;;;;;5.37;3.97;;;17.50;93.00;;;;;;4986956;28;20267;-83
2022/09/28 13:11:59;;;;;;;5.20;4.13;;;17.20;92.90;;;;;;5014796;28;20244;-83
2022/09/28 13:14:51;;;;;;;6.00;4.20;;;16.80;93.70;;;;;;5001385;28;20238;-83
2022/09/28 13:17:25;;;;;;;5.70;3.87;;;16.60;94.00;;;;;;5019399;28;20238;-83
2022/09/28 13:19:58;;;;;;;6.23;4.50;;;16.30;94.40;;;;;;5023001;28;20319;-82
2022/09/28 13:22:35;;;;;;;6.60;4.90;;;16.00;94.60;;;;;;5021619;28;20330;-82
2022/09/28 13:25:09;;;;;;;5.70;4.30;;;15.80;94.50;;;;;;5022939;28;20233;-83
2022/09/28 13:27:44;;;;;;;5.27;3.67;;;15.60;95.30;;;;;;5001034;28;20225;-82
2022/09/28 13:30:14;;;;;;;7.23;3.53;;;15.40;95.20;;;;;;5000575;28;20222;-83
2022/09/28 13:32:42;;;;;;;5.87;3.23;;;15.30;95.60;;;;;;5001512;28;20221;-82